Time;durP1;ratioP1;P1;durP2;ratioP2;P2;SDS_P1;SDS_P2;PMS_P1;PMS_P2;Temp;Humidity;BMP_temperature;BMP_pressure;BME280_temperature;BME280_humidity;BME280_pressure;Samples;Min_cycle;Max_cycle;Signal;HPM_P1;HPM_P2
2023/03/03 00:00:59;;;;;;;5.55;2.67;;;6.80;99.90;;;;;;5090373;28;20038;-73
2023/03/03 00:03:26;;;;;;;4.20;1.80;;;6.80;99.90;;;;;;5090025;28;20031;-74
2023/03/03 00:05:52;;;;;;;6.80;2.22;;;6.80;99.90;;;;;;5090807;28;20035;-74
2023/03/03 00:08:19;;;;;;;3.17;1.85;;;6.80;99.90;;;;;;5090987;28;20154;-73
2023/03/03 00:10:45;;;;;;;2.53;1.52;;;6.80;99.90;;;;;;5090491;28;20067;-74
2023/03/03 00:13:18;;;;;;;2.58;1.27;;;6.80;99.90;;;;;;5090635;28;20032;-73
2023/03/03 00:15:44;;;;;;;2.75;1.20;;;6.80;99.90;;;;;;5089479;28;20039;-74
2023/03/03 00:18:25;;;;;;;2.80;1.05;;;6.80;99.90;;;;;;5090156;28;20032;-74
2023/03/03 00:20:59;;;;;;;3.25;1.25;;;6.80;99.90;;;;;;5088217;28;20082;-72
2023/03/03 00:23:39;;;;;;;3.90;1.00;;;6.80;99.90;;;;;;5090136;28;20048;-72
2023/03/03 00:26:30;;;;;;;2.53;1.42;;;6.80;99.90;;;;;;5089162;28;20035;-72
2023/03/03 00:28:55;;;;;;;2.17;1.10;;;6.80;99.90;;;;;;5089182;28;20028;-73
2023/03/03 00:31:35;;;;;;;1.80;1.10;;;6.80;99.90;;;;;;5089531;28;20035;-73
2023/03/03 00:34:25;;;;;;;2.47;0.95;;;6.80;99.90;;;;;;5088822;28;20089;-72
2023/03/03 00:36:54;;;;;;;3.20;1.27;;;6.90;99.90;;;;;;5086268;28;20036;-73
2023/03/03 00:39:23;;;;;;;3.15;1.50;;;6.80;99.90;;;;;;5090400;28;20031;-72
2023/03/03 00:41:49;;;;;;;3.95;1.80;;;6.80;99.90;;;;;;5089390;28;20024;-73
2023/03/03 00:44:32;;;;;;;3.75;1.60;;;6.80;99.90;;;;;;5090688;28;20095;-72
2023/03/03 00:47:01;;;;;;;;;;;6.80;99.90;;;;;;5090332;28;20032;-73
2023/03/03 00:49:27;;;;;;;5.40;3.08;;;6.80;99.90;;;;;;5090499;28;19907;-73
2023/03/03 00:51:53;;;;;;;6.30;3.33;;;6.80;99.90;;;;;;5089726;28;20463;-72
2023/03/03 00:54:19;;;;;;;7.43;2.80;;;6.80;99.90;;;;;;5090384;28;20079;-73
2023/03/03 00:56:45;;;;;;;6.90;2.17;;;6.80;99.90;;;;;;5089661;28;20032;-77
2023/03/03 00:59:10;;;;;;;6.05;2.47;;;6.80;99.90;;;;;;5090439;28;20024;-73
2023/03/03 01:01:36;;;;;;;3.53;2.13;;;6.80;99.90;;;;;;5090093;28;20138;-72
2023/03/03 01:04:02;;;;;;;2.65;1.73;;;6.80;99.90;;;;;;5090035;28;20028;-73
2023/03/03 01:06:28;;;;;;;4.65;1.50;;;6.80;99.90;;;;;;5089831;28;20442;-73
2023/03/03 01:08:56;;;;;;;5.40;1.60;;;6.80;99.90;;;;;;5089778;28;20399;-73
2023/03/03 01:11:24;;;;;;;3.28;1.52;;;6.80;99.90;;;;;;5088775;28;20382;-73
2023/03/03 01:13:52;;;;;;;2.78;1.30;;;6.80;99.90;;;;;;5089291;28;20024;-73
2023/03/03 01:16:18;;;;;;;4.78;1.50;;;6.80;99.90;;;;;;5090168;28;20032;-72
2023/03/03 01:18:43;;;;;;;3.78;1.48;;;6.80;99.90;;;;;;5090027;28;20116;-74
2023/03/03 01:21:10;;;;;;;4.03;1.65;;;6.80;99.90;;;;;;5089376;28;20095;-72
2023/03/03 01:23:37;;;;;;;4.15;1.52;;;6.80;99.90;;;;;;5090291;28;20047;-72
2023/03/03 01:26:03;;;;;;;4.03;1.38;;;6.80;99.90;;;;;;5088052;28;20028;-73
2023/03/03 01:28:29;;;;;;;4.07;1.55;;;6.80;99.90;;;;;;5090440;28;20478;-72
2023/03/03 01:31:00;;;;;;;5.28;1.48;;;6.80;99.90;;;;;;5089496;28;20031;-72
2023/03/03 01:33:26;;;;;;;4.77;1.40;;;6.80;99.90;;;;;;5090078;28;20032;-72
2023/03/03 01:35:52;;;;;;;2.40;1.17;;;6.80;99.90;;;;;;5089635;28;20024;-72
2023/03/03 01:38:18;;;;;;;3.88;1.42;;;6.80;99.90;;;;;;5090007;28;20075;-72
2023/03/03 01:40:58;;;;;;;1.23;0.95;;;6.80;99.90;;;;;;5090145;28;20028;-72
2023/03/03 01:43:29;;;;;;;3.45;1.50;;;6.80;99.90;;;;;;5093471;28;20032;-72
2023/03/03 01:45:56;;;;;;;2.88;1.17;;;6.90;99.90;;;;;;5093157;28;20032;-73
2023/03/03 01:48:27;;;;;;;3.80;1.30;;;6.90;99.90;;;;;;5093765;28;20027;-73
2023/03/03 01:51:19;;;;;;;4.63;1.30;;;6.90;99.90;;;;;;5092975;28;20061;-73
2023/03/03 01:53:51;;;;;;;3.05;1.55;;;6.90;99.90;;;;;;5093498;28;20028;-72
2023/03/03 01:56:17;;;;;;;1.75;1.08;;;6.90;99.90;;;;;;5093794;28;20023;-73
2023/03/03 01:58:54;;;;;;;1.50;0.98;;;6.90;99.90;;;;;;5091922;28;20485;-73
2023/03/03 02:01:23;;;;;;;3.03;0.98;;;6.90;99.90;;;;;;5093919;28;20024;-73
2023/03/03 02:03:50;;;;;;;4.03;1.30;;;7.00;99.90;;;;;;5092962;28;20027;-76
2023/03/03 02:06:19;;;;;;;3.28;1.10;;;6.90;99.90;;;;;;5093291;28;20032;-72
2023/03/03 02:09:02;;;;;;;2.55;1.15;;;7.00;99.90;;;;;;5093595;28;20039;-72
2023/03/03 02:11:31;;;;;;;1.70;1.05;;;7.00;99.90;;;;;;5093178;28;20210;-73
2023/03/03 02:13:56;;;;;;;1.23;0.85;;;7.00;99.90;;;;;;5092516;28;20048;-73
2023/03/03 02:16:22;;;;;;;2.58;1.08;;;7.00;99.90;;;;;;5093637;28;20121;-73
2023/03/03 02:18:48;;;;;;;3.88;1.40;;;7.00;99.90;;;;;;5093196;28;20032;-77
2023/03/03 02:21:15;;;;;;;1.05;0.90;;;7.00;99.90;;;;;;5093049;28;20334;-72
2023/03/03 02:24:05;;;;;;;13.15;5.28;;;7.00;99.90;;;;;;5093071;28;20047;-72
2023/03/03 02:26:35;;;;;;;8.45;3.33;;;6.90;99.90;;;;;;5093046;28;20466;-72
2023/03/03 02:29:01;;;;;;;9.65;3.65;;;6.90;99.90;;;;;;5092343;28;20096;-73
2023/03/03 02:31:30;;;;;;;2.63;1.50;;;6.80;99.90;;;;;;5091719;28;20514;-72
2023/03/03 02:33:56;;;;;;;3.03;1.65;;;6.70;99.90;;;;;;5092117;28;20020;-73
2023/03/03 02:36:25;;;;;;;2.55;1.35;;;6.70;99.90;;;;;;5092967;28;20036;-72
2023/03/03 02:39:02;;;;;;;3.42;1.77;;;6.70;99.90;;;;;;5094155;28;20028;-76
2023/03/03 02:41:40;;;;;;;6.45;1.90;;;6.60;99.90;;;;;;5095209;28;20035;-73
2023/03/03 02:44:15;;;;;;;2.85;1.75;;;6.60;99.90;;;;;;5095537;28;20024;-73
2023/03/03 02:46:45;;;;;;;5.28;2.10;;;6.60;99.90;;;;;;5095780;28;20035;-72
2023/03/03 02:49:13;;;;;;;4.63;1.75;;;6.60;99.90;;;;;;5094295;28;20059;-73
2023/03/03 02:51:40;;;;;;;2.40;1.38;;;6.60;99.90;;;;;;5094906;28;20115;-72
2023/03/03 02:54:07;;;;;;;1.65;1.02;;;6.50;99.90;;;;;;5092611;28;20023;-72
2023/03/03 02:56:33;;;;;;;1.27;1.17;;;6.50;99.90;;;;;;5092426;28;20024;-72
2023/03/03 02:58:59;;;;;;;4.95;1.30;;;6.50;99.90;;;;;;5090400;28;20496;-73
2023/03/03 03:01:25;;;;;;;4.18;1.30;;;6.40;99.90;;;;;;5092681;28;20028;-73
2023/03/03 03:03:51;;;;;;;5.10;1.50;;;6.40;99.90;;;;;;5091815;28;20093;-73
2023/03/03 03:06:16;;;;;;;1.83;1.10;;;6.50;99.90;;;;;;5092058;28;20446;-72
2023/03/03 03:08:42;;;;;;;3.83;1.40;;;6.40;99.90;;;;;;5091806;28;20103;-71
2023/03/03 03:11:08;;;;;;;2.55;1.05;;;6.40;99.90;;;;;;5091229;28;20028;-72
2023/03/03 03:13:34;;;;;;;2.65;1.33;;;6.40;99.90;;;;;;5092087;28;20057;-73
2023/03/03 03:16:00;;;;;;;4.05;1.67;;;6.40;99.90;;;;;;5091412;28;20032;-73
2023/03/03 03:18:26;;;;;;;2.22;1.40;;;6.40;99.90;;;;;;5090997;28;20398;-73
2023/03/03 03:20:52;;;;;;;1.80;1.30;;;6.50;99.90;;;;;;5091591;28;20047;-74
2023/03/03 03:23:20;;;;;;;2.80;1.60;;;6.50;99.90;;;;;;5091692;28;20043;-73
2023/03/03 03:25:46;;;;;;;2.95;1.33;;;6.40;99.90;;;;;;5091351;28;20036;-73
2023/03/03 03:28:15;;;;;;;1.80;1.42;;;6.50;99.90;;;;;;5091169;28;20094;-73
2023/03/03 03:30:42;;;;;;;4.25;1.48;;;6.50;99.90;;;;;;5091429;28;20387;-72
2023/03/03 03:33:09;;;;;;;2.55;1.30;;;6.40;99.90;;;;;;5089742;28;20093;-73
2023/03/03 03:35:35;;;;;;;13.38;1.73;;;6.40;99.90;;;;;;5091669;28;20038;-73
2023/03/03 03:38:03;;;;;;;7.50;1.45;;;6.40;99.90;;;;;;5091135;28;20028;-73
2023/03/03 03:40:29;;;;;;;4.90;1.50;;;6.40;99.90;;;;;;5091709;28;20107;-73
2023/03/03 03:42:55;;;;;;;2.13;1.58;;;6.40;99.90;;;;;;5091335;28;20108;-77
2023/03/03 03:45:21;;;;;;;3.00;1.42;;;6.40;99.90;;;;;;5091356;28;20078;-73
2023/03/03 03:47:47;;;;;;;3.45;1.50;;;6.40;99.90;;;;;;5091796;28;20524;-73
2023/03/03 03:50:13;;;;;;;3.28;1.42;;;6.40;99.90;;;;;;5091599;28;20108;-73
2023/03/03 03:52:38;;;;;;;3.88;1.52;;;6.40;99.90;;;;;;5091202;28;20028;-73
2023/03/03 03:55:05;;;;;;;3.58;1.63;;;6.40;99.90;;;;;;5091074;28;20573;-73
2023/03/03 03:57:30;;;;;;;5.07;1.50;;;6.40;99.90;;;;;;5091535;28;20028;-73
2023/03/03 03:59:56;;;;;;;5.85;1.70;;;6.40;99.90;;;;;;5089979;28;20027;-76
2023/03/03 04:02:22;;;;;;;4.20;1.70;;;6.40;99.90;;;;;;5090871;28;20491;-73
2023/03/03 04:04:48;;;;;;;3.42;2.00;;;6.40;99.90;;;;;;5088838;28;20498;-72
2023/03/03 04:07:13;;;;;;;4.32;1.90;;;6.40;99.90;;;;;;5089943;28;20096;-73
2023/03/03 04:09:39;;;;;;;4.72;1.70;;;6.40;99.90;;;;;;5091023;28;20032;-72
2023/03/03 04:12:05;;;;;;;3.03;1.70;;;6.40;99.90;;;;;;5090214;28;20407;-73
2023/03/03 04:14:31;;;;;;;5.20;2.00;;;6.40;99.90;;;;;;5090682;28;20028;-73
2023/03/03 04:16:56;;;;;;;3.28;1.50;;;6.40;99.90;;;;;;5090850;28;20141;-76
2023/03/03 04:19:22;;;;;;;4.88;2.00;;;6.40;99.90;;;;;;5090434;28;20030;-73
2023/03/03 04:21:48;;;;;;;2.58;1.55;;;6.30;99.90;;;;;;5090699;28;20051;-73
2023/03/03 04:24:14;;;;;;;3.97;1.95;;;6.30;99.90;;;;;;5090429;28;20036;-73
2023/03/03 04:26:39;;;;;;;4.43;1.55;;;6.30;99.90;;;;;;5090638;28;20032;-72
2023/03/03 04:29:05;;;;;;;2.28;1.63;;;6.30;99.90;;;;;;5090130;28;20032;-73
2023/03/03 04:31:31;;;;;;;5.40;1.90;;;6.30;99.90;;;;;;5091033;28;20089;-73
2023/03/03 04:33:57;;;;;;;4.88;2.50;;;6.30;99.90;;;;;;5090741;28;20054;-73
2023/03/03 04:36:23;;;;;;;6.95;2.83;;;6.30;99.90;;;;;;5090065;28;20139;-73
2023/03/03 04:38:49;;;;;;;9.68;2.20;;;6.30;99.90;;;;;;5090635;28;20088;-73
2023/03/03 04:41:15;;;;;;;7.35;2.75;;;6.30;99.90;;;;;;5089760;28;20115;-73
2023/03/03 04:43:41;;;;;;;6.78;2.80;;;6.30;99.90;;;;;;5090531;28;20024;-73
2023/03/03 04:46:06;;;;;;;4.30;2.15;;;6.30;99.90;;;;;;5089847;28;20036;-74
2023/03/03 04:48:32;;;;;;;6.13;2.30;;;6.30;99.90;;;;;;5090677;28;20051;-74
2023/03/03 04:50:58;;;;;;;3.88;2.00;;;6.30;99.90;;;;;;5090677;28;20105;-73
2023/03/03 04:53:24;;;;;;;2.30;1.90;;;6.30;99.90;;;;;;5088544;28;20037;-74
2023/03/03 04:55:53;;;;;;;5.13;2.08;;;6.30;99.90;;;;;;5090230;28;20030;-74
2023/03/03 04:58:19;;;;;;;5.28;2.28;;;6.20;99.90;;;;;;5088580;28;20020;-74
2023/03/03 05:00:55;;;;;;;5.43;2.30;;;6.20;99.90;;;;;;5090451;28;20025;-74
2023/03/03 05:03:21;;;;;;;6.32;2.28;;;6.20;99.90;;;;;;5089847;28;20573;-73
2023/03/03 05:05:47;;;;;;;4.57;2.20;;;6.30;99.90;;;;;;5089962;28;20028;-72
2023/03/03 05:08:13;;;;;;;6.30;2.58;;;6.20;99.90;;;;;;5089641;28;20058;-73
2023/03/03 05:10:39;;;;;;;6.70;2.20;;;6.20;99.90;;;;;;5089921;28;20031;-73
2023/03/03 05:13:07;;;;;;;3.58;2.25;;;6.20;99.90;;;;;;5089712;28;20035;-73
2023/03/03 05:15:32;;;;;;;3.95;2.20;;;6.20;99.90;;;;;;5089931;28;20114;-73
2023/03/03 05:17:58;;;;;;;5.40;2.10;;;6.20;99.90;;;;;;5093731;28;20112;-73
2023/03/03 05:20:24;;;;;;;7.00;2.47;;;6.20;99.90;;;;;;5093363;28;20039;-73
2023/03/03 05:22:50;;;;;;;6.45;2.30;;;6.20;99.90;;;;;;5093403;28;20130;-73
2023/03/03 05:25:16;;;;;;;4.88;2.03;;;6.20;99.90;;;;;;5093356;28;20450;-73
2023/03/03 05:27:42;;;;;;;3.85;1.90;;;6.20;99.90;;;;;;5093882;28;20032;-73
2023/03/03 05:30:10;;;;;;;3.75;2.53;;;6.10;99.90;;;;;;5093415;28;20032;-73
2023/03/03 05:32:35;;;;;;;5.82;2.38;;;6.10;99.90;;;;;;5093873;28;20024;-73
2023/03/03 05:35:02;;;;;;;5.18;2.53;;;6.10;99.90;;;;;;5093433;28;20024;-72
2023/03/03 05:37:27;;;;;;;6.50;2.33;;;6.10;99.90;;;;;;5093085;28;20493;-72
2023/03/03 05:39:53;;;;;;;5.35;2.05;;;6.10;99.90;;;;;;5093346;28;20209;-72
2023/03/03 05:42:19;;;;;;;6.13;2.00;;;6.10;99.90;;;;;;5092740;28;20127;-73
2023/03/03 05:44:45;;;;;;;7.22;3.10;;;6.10;99.90;;;;;;5093418;28;20103;-73
2023/03/03 05:47:10;;;;;;;6.03;3.13;;;6.10;99.90;;;;;;5092694;28;20024;-73
2023/03/03 05:49:36;;;;;;;4.03;2.55;;;6.10;99.90;;;;;;5093503;28;20501;-73
2023/03/03 05:52:02;;;;;;;5.10;2.70;;;6.10;99.90;;;;;;5093408;28;20024;-72
2023/03/03 05:54:27;;;;;;;5.22;2.90;;;6.10;99.90;;;;;;5092676;28;20028;-73
2023/03/03 05:56:53;;;;;;;5.78;2.53;;;6.10;99.90;;;;;;5093402;28;20384;-73
2023/03/03 05:59:19;;;;;;;6.72;3.00;;;6.10;99.90;;;;;;5093035;28;20028;-73
2023/03/03 06:01:45;;;;;;;6.32;3.10;;;6.10;99.90;;;;;;5093114;28;20489;-72
2023/03/03 06:04:11;;;;;;;8.65;3.05;;;6.10;99.90;;;;;;5092672;28;20020;-72
2023/03/03 06:06:36;;;;;;;4.65;3.00;;;6.10;99.90;;;;;;5092792;28;20389;-73
2023/03/03 06:09:02;;;;;;;4.78;2.60;;;6.10;99.90;;;;;;5093246;28;20032;-73
2023/03/03 06:11:28;;;;;;;4.40;2.70;;;6.20;99.90;;;;;;5092296;28;20363;-73
2023/03/03 06:13:54;;;;;;;3.90;2.97;;;6.10;99.90;;;;;;5093122;28;20115;-73
2023/03/03 06:16:20;;;;;;;5.05;2.92;;;6.10;99.90;;;;;;5092270;28;20024;-73
2023/03/03 06:18:46;;;;;;;5.15;2.58;;;6.10;99.90;;;;;;5092947;28;20031;-73
2023/03/03 06:21:11;;;;;;;4.90;3.00;;;6.20;99.90;;;;;;5092078;28;20390;-73
2023/03/03 06:23:37;;;;;;;3.55;2.50;;;6.10;99.90;;;;;;5093126;28;20075;-72
2023/03/03 06:26:03;;;;;;;4.05;3.00;;;6.20;99.90;;;;;;5092866;28;20426;-72
2023/03/03 06:28:29;;;;;;;8.07;3.63;;;6.20;99.90;;;;;;5091594;28;20449;-72
2023/03/03 06:30:55;;;;;;;8.10;3.25;;;6.20;99.90;;;;;;5092717;28;20024;-73
2023/03/03 06:33:21;;;;;;;7.88;3.80;;;6.20;99.90;;;;;;5092125;28;20106;-73
2023/03/03 06:35:51;;;;;;;5.93;3.45;;;6.10;99.90;;;;;;5091265;28;20467;-73
2023/03/03 06:38:17;;;;;;;7.57;3.75;;;6.10;99.90;;;;;;5092058;28;20035;-73
2023/03/03 06:40:45;;;;;;;8.40;4.47;;;6.10;99.90;;;;;;5092236;28;20020;-73
2023/03/03 06:43:11;;;;;;;5.63;3.35;;;6.10;99.90;;;;;;5091752;28;20134;-74
2023/03/03 06:45:36;;;;;;;6.25;3.70;;;6.10;99.90;;;;;;5092270;28;20095;-73
2023/03/03 06:48:02;;;;;;;7.43;3.97;;;6.20;99.90;;;;;;5092333;28;20169;-73
2023/03/03 06:50:28;;;;;;;8.95;4.05;;;6.10;99.90;;;;;;5091757;28;20047;-73
2023/03/03 06:53:16;;;;;;;5.85;3.90;;;6.20;99.90;;;;;;5092237;28;20031;-72
2023/03/03 06:55:43;;;;;;;6.63;3.70;;;6.10;99.90;;;;;;5092400;28;20035;-73
2023/03/03 06:58:18;;;;;;;10.38;5.07;;;6.10;99.90;;;;;;5091871;28;20024;-76
2023/03/03 07:00:51;;;;;;;8.15;4.25;;;6.20;99.90;;;;;;5091787;28;20032;-72
2023/03/03 07:03:17;;;;;;;;;;;6.20;99.90;;;;;;5091617;28;20028;-73
2023/03/03 07:05:43;;;;;;;4.85;3.80;;;6.10;99.90;;;;;;5091664;28;19904;-73
2023/03/03 07:08:16;;;;;;;6.22;4.10;;;6.20;99.90;;;;;;5091473;28;20347;-77
2023/03/03 07:10:42;;;;;;;7.05;4.85;;;6.10;99.90;;;;;;5091796;28;20355;-73
2023/03/03 07:13:22;;;;;;;7.18;5.18;;;6.10;99.90;;;;;;5091476;28;20128;-73
2023/03/03 07:15:49;;;;;;;6.75;4.57;;;6.20;99.90;;;;;;5091896;28;20032;-73
2023/03/03 07:18:50;;;;;;;6.72;4.15;;;6.10;99.90;;;;;;5091293;28;20435;-73
2023/03/03 07:21:18;;;;;;;8.43;4.80;;;6.20;99.90;;;;;;5091025;28;20416;-73
2023/03/03 07:23:46;;;;;;;9.93;4.70;;;6.10;99.90;;;;;;5091566;28;20438;-73
2023/03/03 07:26:24;;;;;;;6.97;4.47;;;6.20;99.90;;;;;;5091142;28;20151;-77
2023/03/03 07:28:57;;;;;;;8.05;5.10;;;6.20;99.90;;;;;;5091736;28;20033;-73
2023/03/03 07:31:30;;;;;;;7.95;5.22;;;6.20;99.90;;;;;;5089761;28;20024;-73
2023/03/03 07:33:58;;;;;;;9.38;5.45;;;6.20;99.90;;;;;;5091798;28;20024;-73
2023/03/03 07:36:30;;;;;;;11.50;5.50;;;6.20;99.90;;;;;;5090957;28;20107;-73
2023/03/03 07:39:13;;;;;;;11.27;6.27;;;6.30;99.90;;;;;;5089340;28;20165;-72
2023/03/03 07:41:39;;;;;;;12.05;5.30;;;6.30;99.90;;;;;;5090196;28;20272;-72
2023/03/03 07:44:31;;;;;;;9.52;6.15;;;6.40;99.90;;;;;;5091217;28;20476;-73
2023/03/03 07:46:56;;;;;;;11.18;5.78;;;6.40;99.90;;;;;;5089741;28;20024;-73
2023/03/03 07:49:30;;;;;;;11.07;6.10;;;6.40;99.90;;;;;;5088821;28;20492;-73
2023/03/03 07:51:58;;;;;;;10.93;5.57;;;6.30;99.90;;;;;;5091357;28;20058;-73
2023/03/03 07:54:29;;;;;;;7.95;5.43;;;6.30;99.90;;;;;;5090448;28;20024;-73
2023/03/03 07:57:04;;;;;;;6.55;5.10;;;6.20;99.90;;;;;;5090567;28;20028;-72
2023/03/03 07:59:35;;;;;;;10.48;5.82;;;6.30;99.90;;;;;;5090588;28;20153;-72
2023/03/03 08:02:05;;;;;;;11.48;5.88;;;6.30;99.90;;;;;;5092006;28;20097;-72
2023/03/03 08:04:51;;;;;;;12.63;5.55;;;6.30;99.90;;;;;;5093459;28;20024;-73
2023/03/03 08:07:22;;;;;;;10.18;6.10;;;6.30;99.90;;;;;;5093172;28;20052;-73
2023/03/03 08:10:01;;;;;;;12.70;6.20;;;6.30;99.90;;;;;;5092164;28;20114;-73
2023/03/03 08:12:41;;;;;;;11.73;5.75;;;6.40;99.90;;;;;;5091640;28;20024;-73
2023/03/03 08:15:23;;;;;;;9.63;6.38;;;6.40;99.90;;;;;;5092414;28;20020;-73
2023/03/03 08:17:51;;;;;;;10.95;5.63;;;6.40;99.90;;;;;;5092632;28;20070;-73
2023/03/03 08:20:41;;;;;;;11.05;5.90;;;6.40;99.90;;;;;;5090623;28;20066;-76
2023/03/03 08:23:07;;;;;;;7.32;5.78;;;6.50;99.90;;;;;;5091481;28;20117;-72
2023/03/03 08:25:33;;;;;;;11.57;6.50;;;6.50;99.90;;;;;;5090246;28;20024;-72
2023/03/03 08:27:58;;;;;;;11.73;6.40;;;6.50;99.90;;;;;;5090919;28;20427;-74
2023/03/03 08:30:24;;;;;;;8.90;6.10;;;6.50;99.90;;;;;;5090460;28;20490;-73
2023/03/03 08:32:50;;;;;;;11.35;5.65;;;6.50;99.90;;;;;;5090657;28;20024;-73
2023/03/03 08:35:16;;;;;;;10.15;5.57;;;6.50;99.90;;;;;;5090348;28;20359;-75
2023/03/03 08:37:41;;;;;;;13.30;5.72;;;6.50;99.90;;;;;;5090390;28;20098;-72
2023/03/03 08:40:08;;;;;;;12.13;5.18;;;6.50;99.90;;;;;;5089185;28;20035;-72
2023/03/03 08:42:33;;;;;;;9.57;6.00;;;6.50;99.90;;;;;;5090170;28;20030;-73
2023/03/03 08:44:59;;;;;;;9.05;5.18;;;6.60;99.90;;;;;;5090521;28;20032;-72
2023/03/03 08:47:25;;;;;;;10.90;5.30;;;6.60;99.90;;;;;;5083347;28;20103;-75
2023/03/03 08:49:51;;;;;;;13.35;6.15;;;6.60;99.90;;;;;;5074022;28;20028;-73
2023/03/03 08:52:16;;;;;;;9.93;5.95;;;6.60;99.90;;;;;;5073111;28;20114;-77
2023/03/03 08:54:42;;;;;;;9.05;5.70;;;6.60;99.90;;;;;;5073578;28;20025;-73
2023/03/03 08:57:08;;;;;;;9.18;5.38;;;6.70;99.90;;;;;;5073962;28;20152;-73
2023/03/03 08:59:37;;;;;;;6.85;4.47;;;6.60;99.90;;;;;;5073407;28;20047;-73
2023/03/03 09:02:05;;;;;;;6.85;4.88;;;6.60;99.90;;;;;;5074061;28;20044;-73
2023/03/03 09:04:30;;;;;;;9.30;5.63;;;6.70;99.90;;;;;;5073415;28;20032;-73
2023/03/03 09:06:56;;;;;;;7.47;4.93;;;6.70;99.90;;;;;;5073844;28;20032;-73
2023/03/03 09:09:22;;;;;;;7.68;5.20;;;6.70;99.90;;;;;;5073357;28;20024;-74
2023/03/03 09:11:48;;;;;;;11.05;5.32;;;6.70;99.90;;;;;;5073323;28;20076;-73
2023/03/03 09:14:19;;;;;;;12.70;5.68;;;6.70;99.90;;;;;;5073634;28;20044;-72
2023/03/03 09:16:56;;;;;;;5.80;5.00;;;6.80;99.90;;;;;;5073341;28;20032;-72
2023/03/03 09:19:33;;;;;;;5.13;4.35;;;6.80;99.90;;;;;;5073092;28;20106;-73
2023/03/03 09:22:23;;;;;;;12.95;5.15;;;6.80;99.90;;;;;;5073359;28;20336;-72
2023/03/03 09:24:52;;;;;;;4.50;3.20;;;6.80;99.90;;;;;;5073323;28;20090;-73
2023/03/03 09:27:39;;;;;;;4.97;2.15;;;6.80;99.90;;;;;;5073343;28;20052;-73
2023/03/03 09:30:14;;;;;;;4.57;2.55;;;6.80;99.90;;;;;;5073656;28;20056;-73
2023/03/03 09:32:41;;;;;;;5.43;2.83;;;6.80;99.90;;;;;;5073088;28;20078;-74
2023/03/03 09:35:37;;;;;;;6.53;3.53;;;6.80;99.90;;;;;;5073587;28;20048;-73
2023/03/03 09:38:15;;;;;;;7.97;5.57;;;6.80;99.90;;;;;;5073817;28;20029;-73
2023/03/03 09:41:04;;;;;;;8.32;5.45;;;6.80;99.90;;;;;;5072831;28;20025;-72
2023/03/03 09:44:11;;;;;;;6.22;5.20;;;6.80;99.90;;;;;;5072422;28;20064;-74
2023/03/03 09:46:48;;;;;;;7.40;4.35;;;6.80;99.90;;;;;;5088170;28;20123;-74
2023/03/03 09:49:32;;;;;;;11.43;3.55;;;6.90;99.90;;;;;;5073155;28;20494;-74
2023/03/03 09:52:14;;;;;;;6.07;3.38;;;6.90;99.90;;;;;;5073292;28;20439;-73
2023/03/03 09:54:40;;;;;;;;;;;7.00;99.90;;;;;;5073107;28;20028;-73
2023/03/03 09:57:41;;;;;;;3.85;2.17;;;6.90;99.90;;;;;;5073099;28;20295;-75
2023/03/03 10:00:12;;;;;;;5.30;2.60;;;7.00;99.90;;;;;;5073100;28;20033;-74
2023/03/03 10:02:41;;;;;;;2.20;1.90;;;7.00;99.90;;;;;;5071239;28;20031;-72
2023/03/03 10:05:25;;;;;;;2.95;1.70;;;7.20;99.90;;;;;;5073042;28;20031;-72
2023/03/03 10:08:09;;;;;;;4.57;1.70;;;7.20;99.90;;;;;;5072586;28;20028;-73
2023/03/03 10:10:55;;;;;;;3.22;1.33;;;7.20;99.90;;;;;;5070852;28;20055;-73
2023/03/03 10:14:16;;;;;;;4.07;1.40;;;7.30;99.90;;;;;;5070957;28;20132;-73
2023/03/03 10:17:01;;;;;;;2.97;1.20;;;7.30;99.90;;;;;;5060893;28;20186;-72
2023/03/03 10:19:39;;;;;;;3.25;1.50;;;7.40;99.90;;;;;;5091548;28;20120;-73
2023/03/03 10:22:32;;;;;;;2.88;0.85;;;7.50;99.90;;;;;;5091169;28;20047;-73
2023/03/03 10:25:12;;;;;;;3.17;1.20;;;7.60;99.90;;;;;;5088238;28;20043;-72
2023/03/03 10:27:53;;;;;;;5.40;1.27;;;7.50;99.90;;;;;;5091954;28;20042;-74
2023/03/03 10:30:42;;;;;;;2.38;1.17;;;7.60;99.90;;;;;;5092433;28;20025;-72
2023/03/03 10:34:05;;;;;;;2.88;1.00;;;7.50;99.90;;;;;;5092510;28;20054;-72
2023/03/03 10:36:38;;;;;;;2.65;1.10;;;7.40;99.90;;;;;;5069129;28;20412;-72
2023/03/03 10:39:25;;;;;;;2.05;0.77;;;7.50;99.90;;;;;;5052633;28;20078;-72
2023/03/03 10:42:16;;;;;;;2.00;1.00;;;7.60;99.90;;;;;;5068991;28;20117;-74
2023/03/03 10:44:48;;;;;;;3.05;0.95;;;7.70;99.90;;;;;;5068985;28;20029;-73
2023/03/03 10:47:13;;;;;;;2.78;0.90;;;7.70;99.90;;;;;;5068522;28;20040;-73
2023/03/03 10:49:51;;;;;;;2.83;1.02;;;7.70;99.90;;;;;;5068704;28;20032;-73
2023/03/03 10:52:37;;;;;;;2.78;1.00;;;7.70;99.90;;;;;;5069464;28;20032;-73
2023/03/03 10:55:29;;;;;;;5.32;1.50;;;7.70;99.90;;;;;;5069456;28;20041;-74
2023/03/03 10:58:26;;;;;;;2.35;1.20;;;7.70;99.90;;;;;;5069264;28;20036;-73
2023/03/03 11:01:15;;;;;;;2.92;1.25;;;7.60;99.90;;;;;;5052425;28;20032;-73
2023/03/03 11:04:00;;;;;;;2.13;0.98;;;7.60;99.90;;;;;;5068687;28;20108;-73
2023/03/03 11:06:31;;;;;;;3.50;1.27;;;7.50;99.90;;;;;;5072149;28;20402;-77
2023/03/03 11:09:18;;;;;;;2.13;0.88;;;7.40;99.90;;;;;;5092082;28;20463;-74
2023/03/03 11:12:14;;;;;;;1.85;0.80;;;7.30;99.90;;;;;;5090871;28;20527;-74
2023/03/03 11:15:04;;;;;;;2.97;1.10;;;7.20;99.90;;;;;;5090743;28;20454;-73
2023/03/03 11:17:42;;;;;;;1.67;0.88;;;7.20;99.90;;;;;;5091560;28;20024;-74
2023/03/03 11:20:19;;;;;;;2.53;1.20;;;7.10;99.90;;;;;;5091651;28;20535;-73
2023/03/03 11:22:58;;;;;;;1.13;0.80;;;7.10;99.90;;;;;;5090363;28;20056;-74
2023/03/03 11:25:45;;;;;;;2.33;1.02;;;7.20;99.90;;;;;;5090785;28;20493;-76
2023/03/03 11:28:40;;;;;;;3.95;1.00;;;7.10;99.90;;;;;;5091032;28;20123;-74
2023/03/03 11:31:27;;;;;;;3.40;0.85;;;7.20;99.90;;;;;;5090675;28;20381;-74
2023/03/03 11:34:18;;;;;;;5.28;1.10;;;7.20;99.90;;;;;;5090778;28;20063;-73
2023/03/03 11:37:00;;;;;;;2.00;0.90;;;7.30;99.90;;;;;;5091210;28;20024;-73
2023/03/03 11:39:26;;;;;;;1.60;1.10;;;7.30;99.90;;;;;;5091533;28;20382;-77
2023/03/03 11:42:17;;;;;;;5.45;1.38;;;7.30;99.90;;;;;;5091420;28;20032;-74
2023/03/03 11:44:48;;;;;;;3.30;1.10;;;7.40;99.90;;;;;;5091460;28;20105;-74
2023/03/03 11:47:24;;;;;;;5.25;1.02;;;7.20;99.90;;;;;;5091186;28;20051;-74
2023/03/03 11:50:20;;;;;;;4.65;1.02;;;7.10;99.90;;;;;;5090668;28;20616;-74
2023/03/03 11:52:52;;;;;;;3.35;1.27;;;7.10;99.90;;;;;;5090598;28;20835;-73
2023/03/03 11:55:19;;;;;;;4.32;1.60;;;7.00;99.90;;;;;;5091149;28;20482;-74
2023/03/03 11:58:23;;;;;;;5.55;1.25;;;7.10;99.90;;;;;;5090989;28;20511;-73
2023/03/03 12:01:13;;;;;;;2.90;1.05;;;6.90;99.90;;;;;;5082952;28;20115;-73
2023/03/03 12:03:57;;;;;;;2.63;1.23;;;6.80;99.90;;;;;;5090280;28;20024;-74
2023/03/03 12:06:44;;;;;;;4.00;1.50;;;6.90;99.90;;;;;;5091459;28;20081;-74
2023/03/03 12:09:19;;;;;;;4.00;1.65;;;6.80;99.90;;;;;;5091038;28;20111;-74
2023/03/03 12:11:51;;;;;;;1.52;1.42;;;6.70;99.90;;;;;;5090566;28;20524;-74
2023/03/03 12:14:17;;;;;;;4.82;1.50;;;6.60;99.90;;;;;;5090573;28;20081;-75
2023/03/03 12:16:50;;;;;;;2.30;1.42;;;6.60;99.90;;;;;;5090733;28;20421;-74
2023/03/03 12:19:45;;;;;;;4.72;1.50;;;6.50;99.90;;;;;;5091471;28;20455;-74
2023/03/03 12:22:29;;;;;;;4.15;1.42;;;6.50;99.90;;;;;;5085994;28;20135;-74
2023/03/03 12:25:23;;;;;;;3.67;1.40;;;6.50;99.90;;;;;;5090899;28;20032;-75
2023/03/03 12:28:23;;;;;;;2.67;1.67;;;6.40;99.90;;;;;;5090378;28;20035;-74
2023/03/03 12:31:03;;;;;;;3.35;1.60;;;6.50;99.90;;;;;;5090134;28;20016;-74
2023/03/03 12:33:50;;;;;;;4.78;2.10;;;6.50;99.90;;;;;;5090843;28;20024;-78
2023/03/03 12:36:58;;;;;;;3.20;2.03;;;6.50;99.90;;;;;;5090967;28;20027;-74
2023/03/03 12:39:37;;;;;;;3.83;2.60;;;6.60;99.90;;;;;;5087830;28;20086;-75
2023/03/03 12:42:13;;;;;;;2.80;2.22;;;6.60;99.90;;;;;;5090873;28;20028;-74
2023/03/03 12:45:13;;;;;;;4.88;3.13;;;6.50;99.90;;;;;;5090144;28;20020;-74
2023/03/03 12:47:59;;;;;;;7.70;5.38;;;6.50;99.90;;;;;;5090220;28;20067;-74
2023/03/03 12:51:13;;;;;;;8.05;5.88;;;6.60;99.90;;;;;;5090712;28;20036;-75
2023/03/03 12:53:50;;;;;;;11.38;6.72;;;6.60;99.90;;;;;;5077528;28;20378;-75
2023/03/03 12:56:51;;;;;;;6.07;5.38;;;6.60;99.90;;;;;;5090936;28;20112;-75
2023/03/03 12:59:47;;;;;;;10.70;6.78;;;6.60;99.90;;;;;;5090727;28;20020;-74
2023/03/03 13:02:50;;;;;;;11.60;7.50;;;6.60;99.90;;;;;;5090539;28;20481;-75
2023/03/03 13:05:28;;;;;;;14.38;8.45;;;6.60;99.90;;;;;;5090714;28;20492;-76
2023/03/03 13:08:19;;;;;;;16.52;9.63;;;6.70;99.90;;;;;;5090359;28;20127;-76
2023/03/03 13:10:53;;;;;;;17.80;11.07;;;6.80;99.90;;;;;;5089947;28;20032;-75
2023/03/03 13:13:36;;;;;;;20.10;12.75;;;6.80;99.90;;;;;;5090582;28;20032;-76
2023/03/03 13:16:08;;;;;;;13.88;9.88;;;7.00;99.90;;;;;;5090466;28;20024;-75
2023/03/03 13:18:52;;;;;;;11.30;9.90;;;7.00;99.90;;;;;;5089863;28;20116;-75
2023/03/03 13:21:17;;;;;;;11.57;9.48;;;7.10;99.90;;;;;;5090216;28;20024;-75
2023/03/03 13:24:14;;;;;;;12.02;9.55;;;7.20;99.90;;;;;;5088992;28;20465;-76
2023/03/03 13:26:52;;;;;;;10.40;9.02;;;7.30;99.90;;;;;;5089803;28;20035;-75